Estación de Polizones INIA
Ultimos registro cada 15 minutos 67
| N° | Estación | Fecha / Hora | Temperatura | Humedad | Lluvia | Velocidad | Dirección | Radiación | Presion |
| 67 | Polizones INIA | 02-05-2026 16:30 | 12,2 | 54,6 | 0 | 0,8 | 348 | 221 | 1002 |
| 66 | Polizones INIA | 02-05-2026 16:15 | 12,3 | 55,3 | 0 | 0,3 | 21 | 241 | 1002 |
| 65 | Polizones INIA | 02-05-2026 16:00 | 12,2 | 52,2 | 0 | 0,3 | 329 | 295 | 1002 |
| 64 | Polizones INIA | 02-05-2026 15:45 | 12,2 | 56 | 0 | 0,4 | 22 | 310 | 1002 |
| 63 | Polizones INIA | 02-05-2026 15:30 | 11,7 | 56 | 0 | 0,3 | 3 | 367 | 1001 |
| 62 | Polizones INIA | 02-05-2026 15:15 | 11,4 | 62,8 | 0 | 0,6 | 333 | 204 | 1002 |
| 61 | Polizones INIA | 02-05-2026 15:00 | 11,4 | 60,8 | 0 | 0,7 | 352 | 289 | 1003 |
| 60 | Polizones INIA | 02-05-2026 14:45 | 11,7 | 58,2 | 0 | 0,5 | 347 | 354 | 1003 |
| 59 | Polizones INIA | 02-05-2026 14:30 | 11,4 | 61,5 | 0 | 0,8 | 5 | 395 | 1004 |
| 58 | Polizones INIA | 02-05-2026 14:15 | 11,6 | 54,3 | 0 | 0,5 | 8 | 429 | 1003 |
| 57 | Polizones INIA | 02-05-2026 14:00 | 11,2 | 58,8 | 0 | 0,5 | 67 | 412 | 1004 |
| 56 | Polizones INIA | 02-05-2026 13:45 | 10,9 | 62,7 | 0 | 0,6 | 39 | 424 | 1004 |
| 55 | Polizones INIA | 02-05-2026 13:30 | 11 | 61,6 | 0 | 0,3 | 21 | 486 | 1005 |
| 54 | Polizones INIA | 02-05-2026 13:15 | 10,4 | 64,2 | 0 | 0,7 | 73 | 476 | 1004 |
| 53 | Polizones INIA | 02-05-2026 13:00 | 10,2 | 63,9 | 0 | 0,8 | 60 | 401 | 1005 |
| 52 | Polizones INIA | 02-05-2026 12:45 | 10,4 | 65 | 0 | 0,7 | 61 | 492 | 1006 |
| 51 | Polizones INIA | 02-05-2026 12:30 | 9,6 | 64,6 | 0 | 0 | 0 | 516 | 1006 |
| 50 | Polizones INIA | 02-05-2026 12:15 | 8,9 | 73,2 | 0 | 0 | 0 | 397 | 1006 |
| 49 | Polizones INIA | 02-05-2026 12:00 | 8,5 | 73 | 0 | 0,4 | 19 | 381 | 1007 |
| 48 | Polizones INIA | 02-05-2026 11:45 | 7,9 | 81,8 | 0 | 0,2 | 38 | 413 | 1007 |
| 47 | Polizones INIA | 02-05-2026 11:30 | 7,3 | 93,4 | 0 | 0 | 0 | 360 | 1008 |
| 46 | Polizones INIA | 02-05-2026 11:15 | 6,5 | 96,8 | 0 | 0 | 78 | 386 | 1008 |
| 45 | Polizones INIA | 02-05-2026 11:00 | 4,9 | 98,4 | 0 | 0 | 0 | 313 | 1008 |
| 44 | Polizones INIA | 02-05-2026 10:45 | 3,9 | 98,4 | 0 | 0 | 0 | 247 | 1008 |
| 43 | Polizones INIA | 02-05-2026 10:30 | 3,3 | 98,4 | 0 | 0 | 0 | 248 | 1008 |
| 42 | Polizones INIA | 02-05-2026 10:15 | 2,2 | 98,7 | 0 | 0 | 0 | 181 | 1008 |
| 41 | Polizones INIA | 02-05-2026 10:00 | 1,1 | 98,7 | 0 | 0 | 0 | 153 | 1008 |
| 40 | Polizones INIA | 02-05-2026 09:45 | 0,4 | 98,3 | 0 | 0 | 0 | 127 | 1008 |
| 39 | Polizones INIA | 02-05-2026 09:30 | 0,2 | 98 | 0 | 0 | 0 | 151 | 1009 |
| 38 | Polizones INIA | 02-05-2026 09:15 | -0,4 | 98,7 | 0 | 0 | 0 | 224 | 1009 |
| 37 | Polizones INIA | 02-05-2026 09:00 | -1,1 | 98,4 | 0 | 0 | 0 | 115 | 1009 |
| 36 | Polizones INIA | 02-05-2026 08:45 | -1,6 | 98,2 | 0 | 0 | 0 | 68 | 1009 |
| 35 | Polizones INIA | 02-05-2026 08:30 | -2,1 | 98,3 | 0 | 0 | 0 | 50 | 1009 |
| 34 | Polizones INIA | 02-05-2026 08:15 | -2,3 | 98,2 | 0 | 0 | 0 | 37 | 1009 |
| 33 | Polizones INIA | 02-05-2026 08:00 | -2,4 | 98,1 | 0 | 0 | 0 | 16 | 1008 |
| 32 | Polizones INIA | 02-05-2026 07:45 | -2,5 | 98,1 | 0 | 0 | 0 | 4 | 1008 |
| 31 | Polizones INIA | 02-05-2026 07:30 | -2,3 | 97,7 | 0 | 0 | 0 | 0 | 1009 |
| 30 | Polizones INIA | 02-05-2026 07:15 | -2 | 97,9 | 0 | 0 | 0 | 0 | 1009 |
| 29 | Polizones INIA | 02-05-2026 07:00 | -2,1 | 98 | 0 | 0 | 0 | 0 | 1009 |
| 28 | Polizones INIA | 02-05-2026 06:45 | -1,9 | 97,9 | 0 | 0 | 0 | 0 | 1009 |
| 27 | Polizones INIA | 02-05-2026 06:30 | -1,8 | 98 | 0 | 0 | 0 | 0 | 1009 |
| 26 | Polizones INIA | 02-05-2026 06:15 | -1,9 | 98,2 | 0 | 0 | 0 | 0 | 1010 |
| 25 | Polizones INIA | 02-05-2026 06:00 | -2 | 98,2 | 0 | 0 | 0 | 0 | 1010 |
| 24 | Polizones INIA | 02-05-2026 05:45 | -1,4 | 97,4 | 0 | 0 | 0 | 0 | 1010 |
| 23 | Polizones INIA | 02-05-2026 05:30 | -1,6 | 97,8 | 0 | 0 | 0 | 0 | 1010 |
| 22 | Polizones INIA | 02-05-2026 05:15 | -1,5 | 97,8 | 0 | 0 | 0 | 0 | 1010 |
| 21 | Polizones INIA | 02-05-2026 05:00 | -1,4 | 98,2 | 0 | 0 | 0 | 0 | 1011 |
| 20 | Polizones INIA | 02-05-2026 04:45 | -1,8 | 98,2 | 0 | 0 | 0 | 0 | 1011 |
| 19 | Polizones INIA | 02-05-2026 04:30 | -1,8 | 97,9 | 0 | 0 | 0 | 0 | 1011 |
| 18 | Polizones INIA | 02-05-2026 04:15 | -1,5 | 97,6 | 0 | 0 | 0 | 0 | 1011 |
| 17 | Polizones INIA | 02-05-2026 04:00 | -1,4 | 97,8 | 0 | 0 | 0 | 0 | 1011 |
| 16 | Polizones INIA | 02-05-2026 03:45 | -1,3 | 97,7 | 0 | 0 | 0 | 0 | 1012 |
| 15 | Polizones INIA | 02-05-2026 03:30 | -1,4 | 97,6 | 0 | 0 | 0 | 0 | 1012 |
| 14 | Polizones INIA | 02-05-2026 03:15 | -1,8 | 97,9 | 0 | 0 | 0 | 0 | 1012 |
| 13 | Polizones INIA | 02-05-2026 03:00 | -1,4 | 97,4 | 0 | 0 | 0 | 0 | 1012 |
| 12 | Polizones INIA | 02-05-2026 02:45 | -1,5 | 98 | 0 | 0 | 0 | 0 | 1012 |
| 11 | Polizones INIA | 02-05-2026 02:30 | -1,2 | 97,3 | 0 | 0 | 0 | 0 | 1012 |
| 10 | Polizones INIA | 02-05-2026 02:15 | -1,2 | 97,6 | 0 | 0 | 0 | 0 | 1012 |
| 9 | Polizones INIA | 02-05-2026 02:00 | -0,6 | 97,4 | 0 | 0 | 0 | 0 | 1012 |
| 8 | Polizones INIA | 02-05-2026 01:45 | -0,9 | 97,9 | 0 | 0 | 0 | 0 | 1012 |
| 7 | Polizones INIA | 02-05-2026 01:30 | -0,8 | 97,1 | 0 | 0 | 0 | 0 | 1012 |
| 6 | Polizones INIA | 02-05-2026 01:15 | -0,3 | 97 | 0 | 0 | 0 | 0 | 1012 |
| 5 | Polizones INIA | 02-05-2026 01:00 | -0,5 | 97,6 | 0 | 0 | 0 | 0 | 1012 |
| 4 | Polizones INIA | 02-05-2026 00:45 | -0,1 | 96,9 | 0 | 0 | 0 | 0 | 1012 |
| 3 | Polizones INIA | 02-05-2026 00:30 | 0,1 | 97,2 | 0 | 0 | 0 | 0 | 1013 |
| 2 | Polizones INIA | 02-05-2026 00:15 | 0,2 | 96,8 | 0 | 0 | 0 | 0 | 1013 |
| 1 | Polizones INIA | 02-05-2026 00:00 | 0,3 | 96,9 | 0 | 0 | 0 | 0 | 1013 |